createdAt,value
2018-08-20T00:02:03.089Z,11.90
2018-08-20T00:04:35.095Z,15.10
2018-08-20T00:07:02.819Z,10.53
2018-08-20T00:09:36.768Z,16.23
2018-08-20T00:12:05.643Z,12.60
2018-08-20T00:14:33.610Z,16.47
2018-08-20T00:17:01.286Z,11.60
2018-08-20T00:19:28.726Z,16.10
2018-08-20T00:21:56.177Z,12.37
2018-08-20T00:24:23.616Z,14.43
2018-08-20T00:26:51.081Z,16.87
2018-08-20T00:29:18.509Z,11.90
2018-08-20T00:31:45.955Z,12.20
2018-08-20T00:34:13.480Z,14.57
2018-08-20T00:36:43.306Z,12.30
2018-08-20T00:39:10.672Z,12.90
2018-08-20T00:41:38.045Z,16.73
2018-08-20T00:44:10.212Z,13.40
2018-08-20T00:46:37.594Z,19.60
2018-08-20T00:49:05.036Z,14.93
2018-08-20T00:51:33.348Z,19.23
2018-08-20T00:54:00.703Z,12.90
2018-08-20T00:56:28.083Z,17.67
2018-08-20T00:58:55.448Z,16.20
2018-08-20T01:01:22.825Z,15.90
2018-08-20T01:06:46.982Z,13.27
2018-08-20T01:09:14.392Z,17.07
2018-08-20T01:11:41.812Z,17.33
2018-08-20T01:14:09.794Z,15.37
2018-08-20T01:16:37.249Z,16.70
2018-08-20T01:19:04.775Z,16.90
2018-08-20T01:21:32.199Z,15.00
2018-08-20T01:23:59.655Z,16.87
2018-08-20T01:26:27.044Z,14.13
2018-08-20T01:28:54.427Z,14.37
2018-08-20T01:31:21.844Z,17.30
2018-08-20T01:33:49.252Z,19.47
2018-08-20T01:36:16.624Z,17.00
2018-08-20T01:38:43.998Z,15.70
2018-08-20T01:41:11.364Z,15.27
2018-08-20T01:43:39.276Z,14.83
2018-08-20T01:46:06.837Z,19.57
2018-08-20T01:48:34.224Z,17.10
2018-08-20T01:51:01.620Z,14.30
2018-08-20T01:53:29.005Z,14.50
2018-08-20T01:55:56.383Z,12.80
2018-08-20T01:58:23.771Z,17.10
2018-08-20T02:00:51.178Z,15.20
2018-08-20T02:03:18.684Z,16.23
2018-08-20T02:05:46.066Z,17.40
2018-08-20T02:08:13.488Z,16.50
2018-08-20T02:10:40.940Z,15.13
2018-08-20T02:13:08.344Z,18.43
2018-08-20T02:15:36.929Z,17.00
2018-08-20T02:18:05.403Z,14.27
2018-08-20T02:20:32.772Z,16.70
2018-08-20T02:23:00.140Z,16.17
2018-08-20T02:25:27.575Z,14.33
2018-08-20T02:27:55.004Z,16.10
2018-08-20T02:30:22.512Z,16.00
2018-08-20T02:32:49.995Z,15.00
2018-08-20T02:35:17.418Z,12.53
2018-08-20T02:37:45.856Z,16.87
2018-08-20T02:40:14.065Z,16.67
2018-08-20T02:42:41.517Z,15.40
2018-08-20T02:45:14.138Z,16.33
2018-08-20T02:47:42.183Z,14.60
2018-08-20T02:50:10.376Z,15.27
2018-08-20T02:52:37.876Z,16.20
2018-08-20T02:55:05.649Z,13.87
2018-08-20T02:57:33.204Z,13.00
2018-08-20T03:00:00.630Z,20.23
2018-08-20T03:02:28.936Z,13.93
2018-08-20T03:04:56.332Z,16.00
2018-08-20T03:07:23.789Z,17.33
2018-08-20T03:09:51.233Z,15.87
2018-08-20T03:12:18.715Z,12.53
2018-08-20T03:14:46.147Z,10.40
2018-08-20T03:17:13.564Z,14.00
2018-08-20T03:19:40.995Z,15.03
2018-08-20T03:22:08.417Z,14.33
2018-08-20T03:24:35.932Z,10.50
2018-08-20T03:27:03.399Z,15.23
2018-08-20T03:29:30.832Z,12.80
2018-08-20T03:31:58.244Z,16.80
2018-08-20T03:34:25.689Z,20.33
2018-08-20T03:36:53.089Z,21.30
2018-08-20T03:39:20.560Z,19.97
2018-08-20T03:41:48.020Z,21.53
2018-08-20T03:44:15.447Z,20.57
2018-08-20T03:46:42.870Z,19.27
2018-08-20T03:49:10.308Z,18.27
2018-08-20T03:51:37.748Z,19.70
2018-08-20T03:54:05.230Z,21.67
2018-08-20T03:56:32.653Z,18.57
2018-08-20T03:59:00.063Z,17.00
2018-08-20T04:01:27.532Z,19.80
2018-08-20T04:03:55.178Z,14.93
2018-08-20T04:06:22.653Z,13.97
2018-08-20T04:08:50.110Z,20.03
2018-08-20T04:11:17.528Z,13.87
2018-08-20T04:13:44.904Z,12.53
2018-08-20T04:16:12.284Z,14.90
2018-08-20T04:18:39.884Z,14.20
2018-08-20T04:21:07.325Z,18.43
2018-08-20T04:23:34.799Z,16.80
2018-08-20T04:26:02.240Z,14.20
2018-08-20T04:28:29.687Z,19.10
2018-08-20T04:30:57.145Z,15.17
2018-08-20T04:33:24.565Z,17.30
2018-08-20T04:35:52.064Z,17.30
2018-08-20T04:38:19.552Z,21.33
2018-08-20T04:40:46.984Z,20.80
2018-08-20T04:43:14.391Z,17.00
2018-08-20T04:45:41.865Z,18.93
2018-08-20T04:48:09.288Z,19.27
2018-08-20T04:50:36.810Z,20.20
2018-08-20T04:53:04.168Z,20.10
2018-08-20T04:55:31.592Z,22.10
2018-08-20T04:57:59.028Z,25.43
2018-08-20T05:00:26.452Z,17.97
2018-08-20T05:02:53.856Z,17.97
2018-08-20T05:05:21.393Z,20.37
2018-08-20T05:07:49.694Z,20.07
2018-08-20T05:10:17.126Z,20.17
2018-08-20T05:12:44.571Z,23.63
2018-08-20T05:15:11.984Z,20.30
2018-08-20T05:17:39.419Z,18.00
2018-08-20T05:20:07.329Z,20.20
2018-08-20T05:22:34.941Z,22.10
2018-08-20T05:25:02.373Z,19.83
2018-08-20T05:27:29.746Z,19.30
2018-08-20T05:29:57.128Z,19.00
2018-08-20T05:32:24.531Z,21.87
2018-08-20T05:34:51.905Z,20.87
2018-08-20T05:37:19.324Z,20.53
2018-08-20T05:39:46.683Z,22.80
2018-08-20T05:42:14.084Z,22.27
2018-08-20T05:44:41.498Z,23.40
2018-08-20T05:47:08.891Z,24.70
2018-08-20T05:49:36.304Z,20.30
2018-08-20T05:52:03.852Z,18.47
2018-08-20T05:54:31.243Z,23.10
2018-08-20T05:56:58.591Z,21.83
2018-08-20T05:59:25.947Z,19.67
2018-08-20T06:01:53.312Z,21.30
2018-08-20T06:04:20.756Z,23.03
2018-08-20T06:06:48.984Z,27.43
2018-08-20T06:09:16.360Z,24.90
2018-08-20T06:11:43.748Z,24.43
2018-08-20T06:14:11.108Z,24.97
2018-08-20T06:16:38.499Z,21.90
2018-08-20T06:19:05.900Z,25.27
2018-08-20T06:21:33.462Z,24.87
2018-08-20T06:24:00.816Z,23.17
2018-08-20T06:26:28.280Z,26.63
2018-08-20T06:28:56.054Z,24.83
2018-08-20T06:31:23.760Z,25.83
2018-08-20T06:33:51.361Z,25.43
2018-08-20T06:36:18.903Z,24.60
2018-08-20T06:38:46.380Z,25.77
2018-08-20T06:41:14.652Z,28.67
2018-08-20T06:43:42.075Z,24.80
2018-08-20T06:46:09.566Z,26.63
2018-08-20T06:48:37.035Z,27.17
2018-08-20T06:51:04.429Z,28.97
2018-08-20T06:53:31.852Z,29.43
2018-08-20T06:55:59.277Z,30.63
2018-08-20T06:58:26.805Z,29.90
2018-08-20T07:00:54.310Z,28.37
2018-08-20T07:03:21.720Z,27.77
2018-08-20T07:05:49.140Z,28.37
2018-08-20T07:08:16.555Z,30.13
2018-08-20T07:10:46.808Z,28.57
2018-08-20T07:13:36.088Z,33.63
2018-08-20T07:16:04.512Z,29.00
2018-08-20T07:18:31.984Z,29.77
2018-08-20T07:21:00.476Z,29.77
2018-08-20T07:23:28.499Z,29.53
2018-08-20T07:25:55.980Z,28.60
2018-08-20T07:28:23.468Z,33.23
2018-08-20T07:30:50.938Z,31.10
2018-08-20T07:33:19.017Z,29.93
2018-08-20T07:35:46.508Z,30.70
2018-08-20T07:38:14.051Z,26.90
2018-08-20T07:40:41.515Z,30.80
2018-08-20T07:43:08.971Z,32.47
2018-08-20T07:45:36.422Z,26.40
2018-08-20T07:48:04.042Z,27.93
2018-08-20T07:50:31.509Z,26.27
2018-08-20T07:52:59.028Z,27.07
2018-08-20T07:55:26.620Z,25.10
2018-08-20T07:57:54.079Z,24.70
2018-08-20T08:00:21.544Z,23.60
2018-08-20T08:02:49.050Z,25.10
2018-08-20T08:05:16.483Z,23.40
2018-08-20T08:07:43.903Z,22.20
2018-08-20T08:10:13.200Z,19.57
2018-08-20T08:12:40.769Z,21.00
2018-08-20T08:15:09.889Z,24.43
2018-08-20T08:17:37.444Z,22.00
2018-08-20T08:20:06.432Z,20.70
2018-08-20T08:22:33.863Z,22.97
2018-08-20T08:25:01.332Z,24.73
2018-08-20T08:27:28.756Z,18.10
2018-08-20T08:29:56.235Z,22.63
2018-08-20T08:32:23.744Z,22.07
2018-08-20T08:34:51.816Z,26.10
2018-08-20T08:37:20.223Z,24.17
2018-08-20T08:39:47.683Z,26.57
2018-08-20T08:42:15.140Z,27.40
2018-08-20T08:44:43.769Z,29.77
2018-08-20T08:47:11.227Z,33.53
2018-08-20T08:49:38.668Z,32.97
2018-08-20T08:52:06.132Z,31.80
2018-08-20T08:54:33.600Z,32.27
2018-08-20T08:57:01.684Z,35.80
2018-08-20T08:59:29.129Z,38.30
2018-08-20T09:01:56.644Z,36.30
2018-08-20T09:04:24.158Z,39.63
2018-08-20T09:06:51.536Z,41.27
2018-08-20T09:09:18.976Z,40.67
2018-08-20T09:11:46.421Z,44.07
2018-08-20T09:14:13.839Z,43.33
2018-08-20T09:16:41.477Z,45.83
2018-08-20T09:19:08.907Z,45.80
2018-08-20T09:21:36.328Z,45.80
2018-08-20T09:24:04.400Z,47.27
2018-08-20T09:26:31.889Z,53.37
2018-08-20T09:28:59.277Z,50.53
2018-08-20T09:31:26.661Z,50.70
2018-08-20T09:33:54.188Z,52.93
2018-08-20T09:36:21.582Z,57.10
2018-08-20T09:38:49.248Z,51.97
2018-08-20T09:41:16.626Z,54.53
2018-08-20T09:43:43.995Z,55.30
2018-08-20T09:46:11.392Z,53.93
2018-08-20T09:48:38.757Z,54.90
2018-08-20T09:51:06.169Z,46.87
2018-08-20T09:53:33.772Z,48.80
2018-08-20T09:56:01.184Z,49.43
2018-08-20T09:58:28.568Z,56.47
2018-08-20T10:00:56.210Z,53.70
2018-08-20T10:03:23.589Z,55.83
2018-08-20T10:05:50.976Z,55.73
2018-08-20T10:08:18.332Z,56.60
2018-08-20T10:10:45.694Z,59.87
2018-08-20T10:13:13.065Z,59.33
2018-08-20T10:15:40.432Z,59.83
2018-08-20T10:18:07.872Z,67.53
2018-08-20T10:20:35.251Z,53.13
2018-08-20T10:23:02.655Z,52.30
2018-08-20T10:25:30.067Z,55.17
2018-08-20T10:27:57.641Z,52.40
2018-08-20T10:30:25.083Z,52.37
2018-08-20T10:32:52.503Z,54.57
2018-08-20T10:35:19.936Z,49.10
2018-08-20T10:37:47.425Z,51.30
2018-08-20T10:40:14.776Z,50.50
2018-08-20T10:42:42.193Z,55.37
2018-08-20T10:45:18.137Z,52.13
2018-08-20T10:47:46.778Z,47.00
2018-08-20T10:50:15.562Z,47.40
2018-08-20T10:52:44.332Z,48.67
2018-08-20T10:55:11.857Z,46.80
2018-08-20T10:57:39.348Z,46.60
2018-08-20T11:00:07.073Z,50.93
2018-08-20T11:02:34.472Z,44.03
2018-08-20T11:05:01.906Z,45.60
2018-08-20T11:07:33.486Z,42.77
2018-08-20T11:10:02.185Z,45.60
2018-08-20T11:12:29.624Z,44.10
2018-08-20T11:14:57.132Z,47.60
2018-08-20T11:17:24.657Z,42.50
2018-08-20T11:19:52.092Z,39.87
2018-08-20T11:22:20.737Z,38.83
2018-08-20T11:24:48.096Z,37.40
2018-08-20T11:27:15.508Z,36.43
2018-08-20T11:29:42.964Z,36.43
2018-08-20T11:32:10.349Z,37.60
2018-08-20T11:34:37.746Z,33.23
2018-08-20T11:37:08.156Z,40.10
2018-08-20T11:39:35.536Z,33.27
2018-08-20T11:42:02.913Z,30.27
2018-08-20T11:44:30.276Z,33.23
2018-08-20T11:46:57.693Z,32.50
2018-08-20T11:49:25.179Z,32.03
2018-08-20T11:51:52.573Z,34.23
2018-08-20T11:54:19.934Z,29.80
2018-08-20T11:56:47.375Z,30.50
2018-08-20T11:59:14.737Z,31.33
2018-08-20T12:01:42.111Z,29.63
2018-08-20T12:04:09.582Z,32.20
2018-08-20T12:06:36.932Z,30.23
2018-08-20T12:09:05.241Z,27.30
2018-08-20T12:11:32.608Z,35.77
2018-08-20T12:13:59.985Z,28.97
2018-08-20T12:16:27.337Z,27.33
2018-08-20T12:18:54.767Z,28.70
2018-08-20T12:21:22.175Z,28.07
2018-08-20T12:23:49.559Z,29.90
2018-08-20T12:26:16.952Z,28.70
2018-08-20T12:28:44.372Z,27.80
2018-08-20T12:31:11.782Z,31.97
2018-08-20T12:33:39.124Z,29.23
2018-08-20T12:36:06.497Z,27.10
2018-08-20T12:38:34.012Z,29.87
2018-08-20T12:41:01.344Z,27.37
2018-08-20T12:43:28.700Z,30.37
2018-08-20T12:45:56.092Z,26.67
2018-08-20T12:48:23.525Z,25.07
2018-08-20T12:50:50.918Z,25.07
2018-08-20T12:53:18.296Z,21.10
2018-08-20T12:55:45.688Z,23.47
2018-08-20T12:58:13.064Z,23.83
2018-08-20T13:00:40.554Z,23.50
2018-08-20T13:03:07.790Z,25.87
2018-08-20T13:05:35.709Z,21.60
2018-08-20T13:08:03.117Z,21.97
2018-08-20T13:10:30.507Z,21.20
2018-08-20T13:12:57.869Z,19.77
2018-08-20T13:15:25.262Z,21.33
2018-08-20T13:17:52.624Z,15.10
2018-08-20T13:20:20.008Z,17.40
2018-08-20T13:22:47.407Z,14.83
2018-08-20T13:25:14.848Z,15.63
2018-08-20T13:27:42.293Z,17.30
2018-08-20T13:30:09.878Z,11.47
2018-08-20T13:32:37.438Z,11.67
2018-08-20T13:35:05.073Z,10.40
2018-08-20T13:37:32.512Z,9.67
2018-08-20T13:39:59.927Z,9.43
2018-08-20T13:42:32.128Z,9.07
2018-08-20T13:45:00.390Z,12.07
2018-08-20T13:47:28.406Z,9.03
2018-08-20T13:50:01.740Z,8.67
2018-08-20T13:52:29.139Z,8.80
2018-08-20T13:55:00.897Z,8.73
2018-08-20T13:57:32.896Z,11.10
2018-08-20T14:00:00.309Z,13.20
2018-08-20T14:02:27.811Z,10.53
2018-08-20T14:04:55.264Z,13.90
2018-08-20T14:07:22.720Z,18.70
2018-08-20T14:09:50.157Z,22.50
2018-08-20T14:12:17.573Z,24.00
2018-08-20T14:14:46.216Z,21.40
2018-08-20T14:17:13.628Z,20.43
2018-08-20T14:19:41.056Z,23.00
2018-08-20T14:22:08.468Z,20.67
2018-08-20T14:24:35.886Z,21.33
2018-08-20T14:27:03.233Z,22.17
2018-08-20T14:29:30.620Z,22.80
2018-08-20T14:31:57.979Z,24.87
2018-08-20T14:34:25.519Z,20.60
2018-08-20T14:36:53.025Z,16.80
2018-08-20T14:39:20.367Z,20.73
2018-08-20T14:41:47.752Z,23.17
2018-08-20T14:44:15.140Z,21.27
2018-08-20T14:46:42.536Z,20.93
2018-08-20T14:49:09.925Z,26.83
2018-08-20T14:51:37.285Z,22.47
2018-08-20T14:54:04.704Z,20.77
2018-08-20T14:56:32.097Z,20.70
2018-08-20T14:58:59.472Z,20.90
2018-08-20T15:01:26.841Z,22.50
2018-08-20T15:03:54.249Z,23.90
2018-08-20T15:06:21.657Z,28.43
2018-08-20T15:08:49.030Z,18.00
2018-08-20T15:11:16.417Z,22.80
2018-08-20T15:13:43.789Z,25.60
2018-08-20T15:16:11.192Z,20.40
2018-08-20T15:18:38.589Z,18.10
2018-08-20T15:21:05.976Z,16.60
2018-08-20T15:23:33.341Z,20.80
2018-08-20T15:26:00.697Z,20.80
2018-08-20T15:28:28.122Z,21.03
2018-08-20T15:30:55.524Z,19.03
2018-08-20T15:33:22.919Z,20.50
2018-08-20T15:35:50.305Z,18.70
2018-08-20T15:38:17.661Z,17.47
2018-08-20T15:40:45.069Z,19.83
2018-08-20T15:43:12.437Z,17.43
2018-08-20T15:45:39.849Z,18.00
2018-08-20T15:48:07.253Z,15.33
2018-08-20T15:50:34.628Z,18.87
2018-08-20T15:53:02.057Z,16.10
2018-08-20T15:55:29.540Z,15.63
2018-08-20T15:57:56.950Z,18.10
2018-08-20T16:00:24.360Z,16.67
2018-08-20T16:02:51.795Z,19.93
2018-08-20T16:05:19.190Z,15.30
2018-08-20T16:07:46.593Z,14.90
2018-08-20T16:10:13.964Z,15.50
2018-08-20T16:12:41.379Z,18.73
2018-08-20T16:15:09.394Z,13.33
2018-08-20T16:17:36.818Z,10.20
2018-08-20T16:20:04.336Z,10.33
2018-08-20T16:22:31.693Z,10.90
2018-08-20T16:24:59.090Z,9.03
2018-08-20T16:27:26.517Z,11.43
2018-08-20T16:29:53.991Z,8.07
2018-08-20T16:32:21.413Z,8.37
2018-08-20T16:34:48.779Z,8.37
2018-08-20T16:37:16.220Z,7.97
2018-08-20T16:39:43.638Z,8.77
2018-08-20T16:42:10.959Z,5.67
2018-08-20T16:44:38.364Z,6.00
2018-08-20T16:47:05.733Z,6.63
2018-08-20T16:49:33.101Z,7.97
2018-08-20T16:52:00.538Z,5.23
2018-08-20T16:54:28.073Z,8.50
2018-08-20T16:56:55.482Z,5.67
2018-08-20T16:59:22.885Z,5.83
2018-08-20T17:01:50.252Z,5.00
2018-08-20T17:04:43.472Z,5.50
2018-08-20T17:07:10.888Z,6.30
2018-08-20T17:09:38.264Z,5.23
2018-08-20T17:12:05.636Z,9.57
2018-08-20T17:14:33.026Z,5.67
2018-08-20T17:17:00.411Z,5.83
2018-08-20T17:19:28.288Z,4.87
2018-08-20T17:21:55.723Z,3.73
2018-08-20T17:24:40.485Z,3.53
2018-08-20T17:29:43.242Z,3.53
2018-08-20T17:32:10.865Z,5.90
2018-08-20T17:34:42.026Z,4.57
2018-08-20T17:37:10.237Z,3.93
2018-08-20T17:39:54.986Z,2.67
2018-08-20T17:42:22.734Z,2.53
2018-08-20T17:44:50.401Z,2.50
2018-08-20T17:47:21.809Z,2.90
2018-08-20T17:49:50.398Z,2.73
2018-08-20T17:52:18.076Z,2.67
2018-08-20T17:54:45.788Z,2.80
2018-08-20T17:57:16.337Z,2.50
2018-08-20T17:59:43.999Z,2.83
2018-08-20T18:02:14.281Z,3.37
2018-08-20T18:04:42.004Z,2.60
2018-08-20T18:07:09.577Z,2.80
2018-08-20T18:09:37.291Z,3.53
2018-08-20T18:12:04.838Z,2.40
2018-08-20T18:14:32.443Z,3.60
2018-08-20T18:17:00.205Z,2.93
2018-08-20T18:19:29.825Z,2.50
2018-08-20T18:21:57.540Z,2.73
2018-08-20T18:24:25.102Z,3.33
2018-08-20T18:26:53.703Z,6.90
2018-08-20T18:29:21.282Z,3.33
2018-08-20T18:31:51.169Z,2.07
2018-08-20T18:34:18.705Z,2.20
2018-08-20T18:36:46.264Z,2.50
2018-08-20T18:39:13.916Z,2.77
2018-08-20T18:41:56.880Z,5.10
2018-08-20T18:44:24.450Z,4.67
2018-08-20T18:46:52.441Z,2.70
2018-08-20T18:49:23.204Z,1.83
2018-08-20T18:51:57.294Z,2.63
2018-08-20T18:54:25.673Z,2.53
2018-08-20T18:56:59.883Z,2.60
2018-08-20T18:59:28.803Z,2.20
2018-08-20T19:01:56.309Z,2.63
2018-08-20T19:04:23.829Z,2.43
2018-08-20T19:06:55.958Z,2.00
2018-08-20T19:09:23.442Z,3.17
2018-08-20T19:11:50.994Z,1.97
2018-08-20T19:14:18.612Z,2.27
2018-08-20T19:16:48.406Z,2.20
2018-08-20T19:19:15.946Z,2.80
2018-08-20T19:21:43.450Z,2.10
2018-08-20T19:26:53.625Z,3.43
2018-08-20T19:29:26.244Z,4.17
2018-08-20T19:31:53.857Z,2.30
2018-08-20T19:34:21.343Z,2.80
2018-08-20T19:36:49.178Z,2.37
2018-08-20T19:39:16.790Z,2.50
2018-08-20T19:41:44.349Z,11.57
2018-08-20T19:44:12.007Z,2.67
2018-08-20T19:46:39.534Z,2.67
2018-08-20T19:49:14.341Z,2.90
2018-08-20T19:51:46.476Z,4.30
2018-08-20T19:54:15.083Z,4.30
2018-08-20T19:56:42.826Z,2.67
2018-08-20T19:59:10.963Z,2.37
2018-08-20T20:01:38.673Z,2.60
2018-08-20T20:04:06.583Z,2.60
2018-08-20T20:06:34.189Z,2.30
2018-08-20T20:09:06.970Z,2.37
2018-08-20T20:11:39.299Z,3.53
2018-08-20T20:14:06.858Z,2.70
2018-08-20T20:16:40.353Z,2.57
2018-08-20T20:19:11.023Z,2.37
2018-08-20T20:21:38.550Z,2.50
2018-08-20T20:24:06.573Z,2.40
2018-08-20T20:26:34.173Z,2.70
2018-08-20T20:29:02.158Z,2.00
2018-08-20T20:31:31.367Z,1.80
2018-08-20T20:33:59.070Z,2.67
2018-08-20T20:36:28.084Z,2.77
2018-08-20T20:38:56.842Z,2.00
2018-08-20T20:41:24.513Z,1.83
2018-08-20T20:43:52.425Z,1.70
2018-08-20T20:46:20.133Z,1.90
2018-08-20T20:48:47.637Z,1.90
2018-08-20T20:51:15.306Z,2.00
2018-08-20T20:53:42.889Z,1.83
2018-08-20T20:56:10.484Z,2.43
2018-08-20T20:58:38.861Z,1.77
2018-08-20T21:01:08.043Z,3.00
2018-08-20T21:03:36.085Z,1.70
2018-08-20T21:06:04.582Z,2.30
2018-08-20T21:08:38.887Z,2.07
2018-08-20T21:11:07.506Z,2.70
2018-08-20T21:13:35.084Z,2.03
2018-08-20T21:16:05.225Z,1.73
2018-08-20T21:18:34.192Z,1.67
2018-08-20T21:21:01.764Z,2.00
2018-08-20T21:23:29.514Z,2.07
2018-08-20T21:25:57.073Z,2.70
2018-08-20T21:28:29.446Z,1.90
2018-08-20T21:30:56.967Z,2.07
2018-08-20T21:33:24.458Z,1.80
2018-08-20T21:35:51.940Z,1.80
2018-08-20T21:38:19.450Z,2.70
2018-08-20T21:40:47.026Z,1.73
2018-08-20T21:43:14.670Z,1.70
2018-08-20T21:45:42.189Z,1.87
2018-08-20T21:48:09.816Z,2.30
2018-08-20T21:50:37.274Z,1.70
2018-08-20T21:53:04.957Z,3.33
2018-08-20T21:55:32.378Z,1.63
2018-08-20T21:58:00.047Z,2.67
2018-08-20T22:00:30.024Z,2.30
2018-08-20T22:03:00.329Z,1.50
2018-08-20T22:05:28.444Z,2.57
2018-08-20T22:07:59.701Z,1.40
2018-08-20T22:10:28.798Z,1.77
2018-08-20T22:12:56.442Z,1.47
2018-08-20T22:15:24.006Z,1.50
2018-08-20T22:17:51.488Z,1.50
2018-08-20T22:20:21.062Z,1.90
2018-08-20T22:22:48.640Z,2.20
2018-08-20T22:25:16.218Z,2.37
2018-08-20T22:27:49.516Z,2.47
2018-08-20T22:30:17.112Z,2.00
2018-08-20T22:32:45.071Z,2.23
2018-08-20T22:35:18.757Z,2.07
2018-08-20T22:37:48.997Z,2.60
2018-08-20T22:40:17.855Z,2.37
2018-08-20T22:42:56.150Z,2.90
2018-08-20T22:45:23.649Z,2.43
2018-08-20T22:47:51.692Z,5.10
2018-08-20T22:50:19.166Z,1.87
2018-08-20T22:52:48.162Z,2.13
2018-08-20T22:55:17.904Z,2.03
2018-08-20T22:57:57.402Z,1.77
2018-08-20T23:00:25.756Z,2.93
2018-08-20T23:02:54.363Z,2.50
2018-08-20T23:05:27.168Z,3.30
2018-08-20T23:07:55.505Z,3.33
2018-08-20T23:10:23.016Z,2.20
2018-08-20T23:12:50.494Z,2.40
2018-08-20T23:15:17.970Z,2.67
2018-08-20T23:17:45.561Z,2.30
2018-08-20T23:20:19.524Z,2.07
2018-08-20T23:22:47.306Z,2.50
2018-08-20T23:25:15.282Z,2.80
2018-08-20T23:27:42.839Z,2.47
2018-08-20T23:30:11.714Z,3.57
2018-08-20T23:32:39.262Z,3.07
2018-08-20T23:35:06.842Z,2.90
2018-08-20T23:37:34.897Z,2.97
2018-08-20T23:40:05.198Z,2.47
2018-08-20T23:42:35.461Z,2.90
2018-08-20T23:45:03.406Z,2.83
2018-08-20T23:47:30.979Z,2.23
2018-08-20T23:49:58.583Z,3.30
2018-08-20T23:52:26.269Z,2.90
2018-08-20T23:54:53.814Z,3.00
2018-08-20T23:57:21.454Z,3.23
2018-08-20T23:59:49.034Z,2.83
